createdAt,value
2022-11-05T05:02:52.715Z,72.97
2022-11-05T05:06:55.348Z,72.62
2022-11-05T05:11:02.238Z,72.84
2022-11-05T05:15:05.562Z,72.29
2022-11-05T05:19:09.490Z,72.28
2022-11-05T05:23:12.451Z,71.97
2022-11-05T05:27:15.442Z,71.51
2022-11-05T05:31:18.013Z,71.88
2022-11-05T05:35:21.960Z,72.09
2022-11-05T05:39:24.632Z,71.78
2022-11-05T05:43:27.353Z,71.79
2022-11-05T05:47:29.947Z,72.00
2022-11-05T05:51:33.856Z,72.62
2022-11-05T05:55:36.519Z,72.99
2022-11-05T05:59:39.089Z,72.95
2022-11-05T06:03:41.821Z,72.69
2022-11-05T06:07:45.787Z,72.37
2022-11-05T06:11:48.447Z,72.12
2022-11-05T06:15:51.103Z,72.05
2022-11-05T06:19:53.697Z,72.11
2022-11-05T06:23:57.634Z,72.75
2022-11-05T06:28:00.772Z,72.45
2022-11-05T06:32:03.385Z,72.28
2022-11-05T06:36:07.577Z,72.49
2022-11-05T06:40:12.316Z,72.14
2022-11-05T06:44:14.911Z,71.69
2022-11-05T06:48:17.506Z,71.56
2022-11-05T06:52:20.926Z,71.70
2022-11-05T06:56:25.343Z,71.72
2022-11-05T07:00:28.007Z,71.45
2022-11-05T07:04:30.642Z,71.53
2022-11-05T07:08:34.189Z,72.15
2022-11-05T07:12:37.981Z,71.77
2022-11-05T07:16:40.546Z,71.71
2022-11-05T07:20:43.208Z,71.55
2022-11-05T07:24:47.304Z,71.14
2022-11-05T07:28:51.468Z,71.06
2022-11-05T07:32:54.122Z,71.17
2022-11-05T07:36:56.758Z,71.12
2022-11-05T07:41:00.400Z,71.51
2022-11-05T07:45:04.958Z,71.30
2022-11-05T07:49:07.586Z,72.04
2022-11-05T07:53:12.519Z,72.14
2022-11-05T07:57:15.311Z,72.05
2022-11-05T08:01:19.439Z,72.12
2022-11-05T08:05:22.227Z,72.25
2022-11-05T08:09:24.828Z,72.24
2022-11-05T08:13:27.438Z,72.09
2022-11-05T08:17:31.422Z,72.47
2022-11-05T08:21:33.996Z,72.31
2022-11-05T08:25:36.868Z,72.38
2022-11-05T08:29:39.444Z,72.17
2022-11-05T08:33:43.637Z,72.28
2022-11-05T08:37:46.271Z,71.57
2022-11-05T08:41:50.095Z,71.71
2022-11-05T08:45:54.034Z,71.09
2022-11-05T08:49:57.954Z,70.86
2022-11-05T08:54:00.564Z,71.07
2022-11-05T08:58:04.906Z,70.04
2022-11-05T09:02:07.839Z,69.85
2022-11-05T09:06:11.937Z,69.66
2022-11-05T09:10:14.601Z,69.21
2022-11-05T09:14:17.245Z,69.13
2022-11-05T09:18:21.440Z,68.53
2022-11-05T09:22:25.552Z,67.83
2022-11-05T09:26:28.175Z,67.07
2022-11-05T09:30:30.783Z,66.63
2022-11-05T09:34:33.692Z,65.65
2022-11-05T09:38:37.647Z,64.76
2022-11-05T09:42:43.626Z,64.45
2022-11-05T09:46:50.949Z,64.09
2022-11-05T09:50:54.617Z,63.35
2022-11-05T09:54:59.302Z,62.71
2022-11-05T09:59:07.217Z,63.33
2022-11-05T10:03:15.042Z,63.06
2022-11-05T10:07:22.281Z,62.87
2022-11-05T10:11:32.705Z,62.53
2022-11-05T10:15:40.389Z,62.26
2022-11-05T10:19:47.030Z,62.14
2022-11-05T10:23:49.910Z,62.54
2022-11-05T10:27:55.904Z,62.56
2022-11-05T10:32:00.949Z,62.87
2022-11-05T10:36:07.086Z,62.51
2022-11-05T10:40:17.481Z,62.49
2022-11-05T10:44:36.706Z,62.39
2022-11-05T10:48:52.986Z,61.97
2022-11-05T10:52:59.758Z,61.40
2022-11-05T10:57:24.822Z,61.08
2022-11-05T11:01:30.467Z,59.63
2022-11-05T11:05:36.193Z,58.88
2022-11-05T11:09:39.489Z,57.30
2022-11-05T11:13:59.105Z,57.52
2022-11-05T11:18:27.957Z,58.13
2022-11-05T11:22:30.586Z,58.22
2022-11-05T11:26:34.913Z,57.59
2022-11-05T11:30:37.593Z,58.16
2022-11-05T11:34:43.452Z,58.01
2022-11-05T11:38:47.078Z,57.08
2022-11-05T11:42:54.401Z,56.87
2022-11-05T11:47:01.088Z,56.77
2022-11-05T11:51:18.237Z,56.24
2022-11-05T11:55:23.129Z,56.07
2022-11-05T11:59:53.851Z,56.83
2022-11-05T12:03:56.079Z,56.43
2022-11-05T12:08:11.149Z,57.02
2022-11-05T12:12:15.391Z,56.23
2022-11-05T12:16:30.330Z,55.76
2022-11-05T12:20:57.983Z,55.63
2022-11-05T12:25:22.547Z,54.49
2022-11-05T12:29:49.283Z,53.86
2022-11-05T12:34:03.415Z,52.44
2022-11-05T12:38:16.281Z,52.41
2022-11-05T12:42:33.933Z,51.62
2022-11-05T12:46:41.020Z,52.68
2022-11-05T12:50:46.356Z,53.47
2022-11-05T12:55:01.023Z,54.32
2022-11-05T12:59:12.162Z,53.43
2022-11-05T13:03:32.632Z,53.22
2022-11-05T13:07:40.070Z,54.30
2022-11-05T13:11:48.049Z,54.56
2022-11-05T13:15:55.875Z,54.07
2022-11-05T13:20:03.848Z,54.44
2022-11-05T13:24:13.633Z,53.57
2022-11-05T13:28:22.916Z,52.71
2022-11-05T13:32:31.154Z,54.42
2022-11-05T13:36:57.114Z,52.64
2022-11-05T13:41:13.289Z,51.60
2022-11-05T13:45:53.428Z,52.16
2022-11-05T13:50:14.674Z,51.96
2022-11-05T13:55:08.128Z,50.94
2022-11-05T13:59:55.428Z,50.29
2022-11-05T14:03:58.483Z,50.49
2022-11-05T14:08:10.150Z,51.83
2022-11-05T14:12:21.573Z,51.08
2022-11-05T14:16:26.436Z,51.01
2022-11-05T14:20:57.535Z,50.87
2022-11-05T14:25:02.586Z,50.19
2022-11-05T14:29:38.189Z,51.60
2022-11-05T14:33:40.986Z,51.45
2022-11-05T14:37:52.831Z,51.32
2022-11-05T14:42:03.604Z,52.34
2022-11-05T14:46:07.861Z,52.76
2022-11-05T14:50:18.657Z,53.81
2022-11-05T14:54:24.034Z,54.27
2022-11-05T14:58:36.902Z,54.51
2022-11-05T15:02:39.604Z,55.06
2022-11-05T15:07:33.142Z,55.50
2022-11-05T15:11:39.817Z,56.09
2022-11-05T15:15:47.946Z,56.47
2022-11-05T15:19:53.034Z,56.77
2022-11-05T15:23:57.748Z,56.95
2022-11-05T15:28:06.280Z,56.73
2022-11-05T15:32:17.345Z,56.45
2022-11-05T15:36:24.676Z,56.22
2022-11-05T15:40:31.823Z,56.03
2022-11-05T15:44:41.313Z,56.59
2022-11-05T15:48:49.820Z,56.80
2022-11-05T15:52:54.606Z,56.21
2022-11-05T15:56:59.629Z,56.47
2022-11-05T16:01:02.272Z,57.23
2022-11-05T16:05:13.461Z,60.25
2022-11-05T16:09:23.023Z,61.49
2022-11-05T16:13:33.124Z,62.01
2022-11-05T16:17:47.575Z,62.20
2022-11-05T16:21:57.694Z,62.33
2022-11-05T16:26:01.869Z,62.79
2022-11-05T16:30:04.987Z,63.37
2022-11-05T16:34:07.946Z,64.05
2022-11-05T16:38:14.295Z,63.88
2022-11-05T16:42:38.883Z,64.08
2022-11-05T16:46:45.159Z,63.62
2022-11-05T16:50:48.144Z,63.71
2022-11-05T16:54:52.097Z,63.95
2022-11-05T16:58:54.871Z,64.02
2022-11-05T17:02:57.691Z,63.89
2022-11-05T17:07:00.621Z,64.24
2022-11-05T17:11:04.971Z,64.35
2022-11-05T17:15:17.820Z,64.96
2022-11-05T17:19:20.453Z,65.19
2022-11-05T17:23:26.614Z,65.34
2022-11-05T17:27:30.609Z,65.84
2022-11-05T17:31:33.333Z,65.68
2022-11-05T17:35:38.876Z,65.69
2022-11-05T17:39:41.529Z,65.96
2022-11-05T17:43:45.855Z,66.01
2022-11-05T17:47:48.440Z,66.41
2022-11-05T17:51:51.182Z,66.28
2022-11-05T17:55:53.828Z,66.23
2022-11-05T17:59:58.372Z,66.34
2022-11-05T18:04:07.266Z,66.75
2022-11-05T18:08:12.459Z,66.38
2022-11-05T18:12:15.101Z,66.88
2022-11-05T18:16:19.077Z,67.07
2022-11-05T18:20:21.922Z,67.14
2022-11-05T18:24:24.658Z,67.11
2022-11-05T18:28:29.890Z,67.15
2022-11-05T18:32:34.171Z,67.51
2022-11-05T18:36:37.077Z,67.54
2022-11-05T18:40:40.072Z,68.06
2022-11-05T18:44:42.788Z,68.01
2022-11-05T18:48:47.113Z,67.71
2022-11-05T18:52:49.684Z,67.70
2022-11-05T18:56:52.442Z,67.82
2022-11-05T19:00:55.057Z,68.21
2022-11-05T19:09:21.674Z,68.76
2022-11-05T19:13:24.316Z,68.90
2022-11-05T19:17:27.001Z,68.63
2022-11-05T19:21:31.714Z,68.40
2022-11-05T19:25:34.402Z,68.56
2022-11-05T19:29:37.046Z,68.69
2022-11-05T19:33:39.675Z,68.74
2022-11-05T19:37:43.915Z,69.03
2022-11-05T19:41:47.745Z,68.85
2022-11-05T19:45:50.436Z,68.99
2022-11-05T19:49:53.112Z,68.70
2022-11-05T19:53:57.673Z,68.93
2022-11-05T19:58:00.441Z,69.01
2022-11-05T20:02:03.232Z,69.18
2022-11-05T20:06:08.711Z,69.32
2022-11-05T20:10:12.716Z,69.12
2022-11-05T20:14:15.416Z,68.70
2022-11-05T20:18:18.320Z,68.32
2022-11-05T20:22:21.161Z,68.81
2022-11-05T20:26:25.183Z,68.87
2022-11-05T20:30:27.891Z,68.91
2022-11-05T20:34:30.985Z,69.36
2022-11-05T20:38:34.231Z,69.42
2022-11-05T20:42:38.277Z,69.58
2022-11-05T20:46:41.337Z,69.75
2022-11-05T20:50:44.976Z,70.42
2022-11-05T20:54:47.937Z,70.81
2022-11-05T20:58:52.738Z,70.58
2022-11-05T21:02:55.535Z,71.03
2022-11-05T21:06:58.263Z,70.39
2022-11-05T21:11:01.603Z,71.17
2022-11-05T21:15:06.657Z,71.29
2022-11-05T21:19:09.623Z,70.86
2022-11-05T21:23:12.420Z,70.71
2022-11-05T21:27:15.027Z,70.96
2022-11-05T21:31:19.101Z,71.56
2022-11-05T21:35:21.741Z,71.54
2022-11-05T21:39:24.473Z,71.35
2022-11-05T21:43:27.073Z,71.71
2022-11-05T21:47:31.759Z,71.67
2022-11-05T21:51:52.275Z,71.30
2022-11-05T21:56:12.567Z,71.04
